createdAt,value
2018-05-09T00:01:52.955Z,14.40
2018-05-09T00:04:20.496Z,14.40
2018-05-09T00:06:48.070Z,14.40
2018-05-09T00:09:15.830Z,14.40
2018-05-09T00:11:43.151Z,14.40
2018-05-09T00:14:10.715Z,14.50
2018-05-09T00:16:38.268Z,14.50
2018-05-09T00:19:06.576Z,14.50
2018-05-09T00:21:34.154Z,14.50
2018-05-09T00:24:01.665Z,14.50
2018-05-09T00:26:29.227Z,14.50
2018-05-09T00:28:57.554Z,14.50
2018-05-09T00:31:25.119Z,14.40
2018-05-09T00:33:52.679Z,14.40
2018-05-09T00:36:20.215Z,14.30
2018-05-09T00:38:48.513Z,14.40
2018-05-09T00:41:16.069Z,14.30
2018-05-09T00:43:43.630Z,14.30
2018-05-09T00:46:11.194Z,14.30
2018-05-09T00:48:38.758Z,14.20
2018-05-09T00:51:06.301Z,14.10
2018-05-09T00:53:33.835Z,14.20
2018-05-09T00:56:01.395Z,14.30
2018-05-09T00:58:28.935Z,14.20
2018-05-09T01:00:56.494Z,14.20
2018-05-09T01:03:24.058Z,14.20
2018-05-09T01:05:51.670Z,14.20
2018-05-09T01:08:19.255Z,14.30
2018-05-09T01:10:46.819Z,14.30
2018-05-09T01:13:15.126Z,14.30
2018-05-09T01:15:42.666Z,14.30
2018-05-09T01:18:10.217Z,14.30
2018-05-09T01:20:37.786Z,14.30
2018-05-09T01:23:05.315Z,14.30
2018-05-09T01:25:32.874Z,14.30
2018-05-09T01:28:00.434Z,14.30
2018-05-09T01:30:28.053Z,14.30
2018-05-09T01:32:56.369Z,14.20
2018-05-09T01:35:23.921Z,14.20
2018-05-09T01:37:51.463Z,14.20
2018-05-09T01:40:19.795Z,14.20
2018-05-09T01:42:47.321Z,14.20
2018-05-09T01:45:15.633Z,14.20
2018-05-09T01:47:43.171Z,14.20
2018-05-09T01:50:10.747Z,14.20
2018-05-09T01:52:38.311Z,14.20
2018-05-09T01:55:05.866Z,14.20
2018-05-09T01:57:33.402Z,14.20
2018-05-09T02:00:00.966Z,14.20
2018-05-09T02:02:29.270Z,14.20
2018-05-09T02:04:56.796Z,14.20
2018-05-09T02:07:24.397Z,14.20
2018-05-09T02:09:51.929Z,14.20
2018-05-09T02:12:19.492Z,14.20
2018-05-09T02:14:47.062Z,14.20
2018-05-09T02:17:14.607Z,14.20
2018-05-09T02:19:42.139Z,14.20
2018-05-09T02:22:09.670Z,14.20
2018-05-09T02:24:37.986Z,14.20
2018-05-09T02:27:05.579Z,14.20
2018-05-09T02:29:33.139Z,14.20
2018-05-09T02:32:00.796Z,14.20
2018-05-09T02:34:28.275Z,14.20
2018-05-09T02:36:55.813Z,14.20
2018-05-09T02:39:23.350Z,14.20
2018-05-09T02:41:50.907Z,14.20
2018-05-09T02:44:19.211Z,14.20
2018-05-09T02:46:46.734Z,14.20
2018-05-09T02:49:14.285Z,14.20
2018-05-09T02:51:41.857Z,14.20
2018-05-09T02:54:09.395Z,14.20
2018-05-09T02:56:37.210Z,14.20
2018-05-09T02:59:05.505Z,14.10
2018-05-09T03:01:33.045Z,14.10
2018-05-09T03:04:01.378Z,14.10
2018-05-09T03:06:28.901Z,14.10
2018-05-09T03:08:57.212Z,14.10
2018-05-09T03:11:24.775Z,14.10
2018-05-09T03:13:52.335Z,14.10
2018-05-09T03:16:19.895Z,14.10
2018-05-09T03:18:47.450Z,14.10
2018-05-09T03:21:14.977Z,14.10
2018-05-09T03:23:42.565Z,14.10
2018-05-09T03:26:10.866Z,14.10
2018-05-09T03:28:38.426Z,14.10
2018-05-09T03:31:05.973Z,14.20
2018-05-09T03:33:33.513Z,14.20
2018-05-09T03:36:01.037Z,14.20
2018-05-09T03:38:28.557Z,14.20
2018-05-09T03:40:56.859Z,14.20
2018-05-09T03:43:24.423Z,14.20
2018-05-09T03:45:52.099Z,14.20
2018-05-09T03:48:19.697Z,14.30
2018-05-09T03:50:47.274Z,14.30
2018-05-09T03:53:14.917Z,14.30
2018-05-09T03:55:43.210Z,14.40
2018-05-09T03:58:10.742Z,14.40
2018-05-09T04:00:38.346Z,14.40
2018-05-09T04:03:17.653Z,14.40
2018-05-09T04:05:57.014Z,14.40
2018-05-09T04:08:36.370Z,14.40
2018-05-09T04:11:04.675Z,14.50
2018-05-09T04:13:32.230Z,14.50
2018-05-09T04:15:59.766Z,14.50
2018-05-09T04:18:27.309Z,14.60
2018-05-09T04:20:54.867Z,14.60
2018-05-09T04:23:22.397Z,14.60
2018-05-09T04:25:49.951Z,14.70
2018-05-09T04:28:17.630Z,14.70
2018-05-09T04:30:45.110Z,14.70
2018-05-09T04:33:12.726Z,14.70
2018-05-09T04:35:41.105Z,14.70
2018-05-09T04:38:09.434Z,14.60
2018-05-09T04:40:36.965Z,14.60
2018-05-09T04:43:05.256Z,14.60
2018-05-09T04:45:32.860Z,14.60
2018-05-09T04:48:00.426Z,14.70
2018-05-09T04:50:27.973Z,14.70
2018-05-09T04:52:55.497Z,14.70
2018-05-09T04:55:23.854Z,14.80
2018-05-09T04:57:51.375Z,14.80
2018-05-09T05:00:18.911Z,14.80
2018-05-09T05:02:46.445Z,14.90
2018-05-09T05:05:14.006Z,15.00
2018-05-09T05:07:41.549Z,15.10
2018-05-09T05:10:09.077Z,15.40
2018-05-09T05:12:36.627Z,15.70
2018-05-09T05:15:04.970Z,16.00
2018-05-09T05:17:32.520Z,16.00
2018-05-09T05:20:00.142Z,16.00
2018-05-09T05:22:27.677Z,16.60
2018-05-09T05:24:55.237Z,17.20
2018-05-09T05:27:22.814Z,17.30
2018-05-09T05:29:50.341Z,17.30
2018-05-09T05:32:17.872Z,17.40
2018-05-09T05:34:45.407Z,17.80
2018-05-09T05:37:12.963Z,18.00
2018-05-09T05:39:40.504Z,18.30
2018-05-09T05:42:08.062Z,18.60
2018-05-09T05:44:35.606Z,18.60
2018-05-09T05:47:03.157Z,18.40
2018-05-09T05:49:30.734Z,18.30
2018-05-09T05:51:58.357Z,18.20
2018-05-09T05:54:25.842Z,18.40
2018-05-09T05:56:53.378Z,18.60
2018-05-09T05:59:20.914Z,19.00
2018-05-09T06:01:48.451Z,19.40
2018-05-09T06:04:15.993Z,19.50
2018-05-09T06:06:44.304Z,18.60
2018-05-09T06:09:11.832Z,18.60
2018-05-09T06:11:40.134Z,17.90
2018-05-09T06:14:07.674Z,17.90
2018-05-09T06:16:36.002Z,18.00
2018-05-09T06:19:03.529Z,17.90
2018-05-09T06:21:31.070Z,18.10
2018-05-09T06:23:58.647Z,18.10
2018-05-09T06:26:26.187Z,18.70
2018-05-09T06:28:53.722Z,19.70
2018-05-09T06:31:21.266Z,20.40
2018-05-09T06:33:48.990Z,20.60
2018-05-09T06:36:17.367Z,20.10
2018-05-09T06:38:44.897Z,20.10
2018-05-09T06:41:12.616Z,20.10
2018-05-09T06:43:41.060Z,20.20
2018-05-09T06:46:10.066Z,20.20
2018-05-09T06:48:39.382Z,20.10
2018-05-09T06:51:07.266Z,20.10
2018-05-09T06:53:34.831Z,20.30
2018-05-09T06:56:03.145Z,21.20
2018-05-09T06:58:30.710Z,21.20
2018-05-09T07:00:58.294Z,21.50
2018-05-09T07:03:25.864Z,21.70
2018-05-09T07:05:53.414Z,21.70
2018-05-09T07:08:20.951Z,21.10
2018-05-09T07:10:48.491Z,20.80
2018-05-09T07:13:16.054Z,20.50
2018-05-09T07:15:44.396Z,20.40
2018-05-09T07:18:12.008Z,20.30
2018-05-09T07:20:40.329Z,19.90
2018-05-09T07:23:07.979Z,19.90
2018-05-09T07:25:35.449Z,19.80
2018-05-09T07:28:02.987Z,19.70
2018-05-09T07:30:31.288Z,19.40
2018-05-09T07:32:58.821Z,19.40
2018-05-09T07:35:26.418Z,19.20
2018-05-09T07:37:53.973Z,19.10
2018-05-09T07:40:21.525Z,19.00
2018-05-09T07:42:49.851Z,18.80
2018-05-09T07:45:17.406Z,18.80
2018-05-09T07:47:45.045Z,18.70
2018-05-09T07:50:12.532Z,18.50
2018-05-09T07:52:40.205Z,18.50
2018-05-09T07:55:07.832Z,18.50
2018-05-09T07:57:36.184Z,18.50
2018-05-09T08:00:03.750Z,18.50
2018-05-09T08:02:31.319Z,18.60
2018-05-09T08:04:58.868Z,18.60
2018-05-09T08:07:26.438Z,18.60
2018-05-09T08:09:54.071Z,18.80
2018-05-09T08:12:21.622Z,18.80
2018-05-09T08:14:49.173Z,18.80
2018-05-09T08:17:17.478Z,19.00
2018-05-09T08:19:45.030Z,19.00
2018-05-09T08:22:12.616Z,19.20
2018-05-09T08:24:40.155Z,19.40
2018-05-09T08:27:07.726Z,19.50
2018-05-09T08:29:35.299Z,19.70
2018-05-09T08:32:02.840Z,19.80
2018-05-09T08:34:30.436Z,19.80
2018-05-09T08:36:57.969Z,19.80
2018-05-09T08:39:26.277Z,20.20
2018-05-09T08:41:53.836Z,20.20
2018-05-09T08:44:21.377Z,20.60
2018-05-09T08:46:49.696Z,21.20
2018-05-09T08:49:17.336Z,21.10
2018-05-09T08:51:44.834Z,21.30
2018-05-09T08:54:12.461Z,21.90
2018-05-09T08:56:40.007Z,22.40
2018-05-09T08:59:08.420Z,22.20
2018-05-09T09:01:35.988Z,22.20
2018-05-09T09:04:03.588Z,22.00
2018-05-09T09:06:31.257Z,22.00
2018-05-09T09:09:00.007Z,22.30
2018-05-09T09:11:27.561Z,22.30
2018-05-09T09:13:55.112Z,22.50
2018-05-09T09:16:22.744Z,22.80
2018-05-09T09:18:50.423Z,22.90
2018-05-09T09:21:18.746Z,23.60
2018-05-09T09:23:46.326Z,23.50
2018-05-09T09:26:13.874Z,23.50
2018-05-09T09:28:41.499Z,23.60
2018-05-09T09:31:09.025Z,23.60
2018-05-09T09:33:36.570Z,23.90
2018-05-09T09:36:04.143Z,24.20
2018-05-09T09:38:31.692Z,24.00
2018-05-09T09:40:59.250Z,23.70
2018-05-09T09:43:26.787Z,24.00
2018-05-09T09:45:54.351Z,23.90
2018-05-09T09:48:22.686Z,24.80
2018-05-09T09:50:50.249Z,24.80
2018-05-09T09:53:17.818Z,25.30
2018-05-09T09:55:45.345Z,25.00
2018-05-09T09:58:13.637Z,24.10
2018-05-09T10:00:41.194Z,24.10
2018-05-09T10:03:08.798Z,23.80
2018-05-09T10:05:36.350Z,23.70
2018-05-09T10:08:04.017Z,23.50
2018-05-09T10:10:31.480Z,23.40
2018-05-09T10:12:59.043Z,23.30
2018-05-09T10:15:26.610Z,23.30
2018-05-09T10:17:54.137Z,23.20
2018-05-09T10:20:21.703Z,23.10
2018-05-09T10:22:49.273Z,22.90
2018-05-09T10:25:16.835Z,22.80
2018-05-09T10:27:44.383Z,22.80
2018-05-09T10:30:12.685Z,22.70
2018-05-09T10:32:40.262Z,22.70
2018-05-09T10:35:07.832Z,22.70
2018-05-09T10:37:35.379Z,22.70
2018-05-09T10:40:02.932Z,22.70
2018-05-09T10:42:30.478Z,23.00
2018-05-09T10:44:58.026Z,23.50
2018-05-09T10:47:25.607Z,23.90
2018-05-09T10:49:53.940Z,24.20
2018-05-09T10:52:21.525Z,24.10
2018-05-09T10:54:49.099Z,24.00
2018-05-09T10:57:16.644Z,24.00
2018-05-09T10:59:44.205Z,23.80
2018-05-09T11:02:11.815Z,23.90
2018-05-09T11:04:40.123Z,23.90
2018-05-09T11:07:07.709Z,23.80
2018-05-09T11:09:35.259Z,23.70
2018-05-09T11:12:02.809Z,23.40
2018-05-09T11:14:30.411Z,23.60
2018-05-09T11:16:57.959Z,24.30
2018-05-09T11:19:25.517Z,24.30
2018-05-09T11:21:53.051Z,24.20
2018-05-09T11:24:21.416Z,24.20
2018-05-09T11:26:48.934Z,24.20
2018-05-09T11:29:16.475Z,24.30
2018-05-09T11:31:44.030Z,24.20
2018-05-09T11:34:12.330Z,23.70
2018-05-09T11:36:39.857Z,23.70
2018-05-09T11:39:07.429Z,23.70
2018-05-09T11:41:35.799Z,23.40
2018-05-09T11:44:03.338Z,23.40
2018-05-09T11:46:30.877Z,23.80
2018-05-09T11:48:58.449Z,24.10
2018-05-09T11:51:26.038Z,24.40
2018-05-09T11:53:53.604Z,24.60
2018-05-09T11:56:21.142Z,24.70
2018-05-09T11:58:48.856Z,24.70
2018-05-09T12:01:17.195Z,24.90
2018-05-09T12:03:44.757Z,24.90
2018-05-09T12:06:12.289Z,25.10
2018-05-09T12:08:40.593Z,25.00
2018-05-09T12:11:08.262Z,25.10
2018-05-09T12:13:35.803Z,25.40
2018-05-09T12:16:04.145Z,25.60
2018-05-09T12:18:31.694Z,25.60
2018-05-09T12:20:59.235Z,25.60
2018-05-09T12:23:26.799Z,25.40
2018-05-09T12:25:54.379Z,25.00
2018-05-09T12:28:21.914Z,24.10
2018-05-09T12:30:49.465Z,23.70
2018-05-09T12:33:17.010Z,23.40
2018-05-09T12:35:45.330Z,23.20
2018-05-09T12:38:12.907Z,23.20
2018-05-09T12:40:40.470Z,22.90
2018-05-09T12:43:08.023Z,22.50
2018-05-09T12:45:35.610Z,22.20
2018-05-09T12:48:03.178Z,22.10
2018-05-09T12:50:30.718Z,22.50
2018-05-09T12:52:58.286Z,22.80
2018-05-09T12:55:25.834Z,23.40
2018-05-09T12:57:53.407Z,23.50
2018-05-09T13:00:21.061Z,23.40
2018-05-09T13:02:48.550Z,23.20
2018-05-09T13:05:16.098Z,23.10
2018-05-09T13:07:43.676Z,23.10
2018-05-09T13:10:11.232Z,23.40
2018-05-09T13:12:38.827Z,23.50
2018-05-09T13:15:06.442Z,23.70
2018-05-09T13:17:34.031Z,23.80
2018-05-09T13:20:01.593Z,24.00
2018-05-09T13:22:29.149Z,23.90
2018-05-09T13:24:56.715Z,24.10
2018-05-09T13:27:24.269Z,24.40
2018-05-09T13:29:51.847Z,24.40
2018-05-09T13:32:19.387Z,24.60
2018-05-09T13:34:48.110Z,24.30
2018-05-09T13:37:15.771Z,24.20
2018-05-09T13:39:43.310Z,24.00
2018-05-09T13:42:10.886Z,23.60
2018-05-09T13:44:38.734Z,23.20
2018-05-09T13:47:06.336Z,22.70
2018-05-09T13:49:33.906Z,22.30
2018-05-09T13:52:01.475Z,21.90
2018-05-09T13:54:29.017Z,21.80
2018-05-09T13:56:56.549Z,21.80
2018-05-09T13:59:24.850Z,22.20
2018-05-09T14:01:52.401Z,22.20
2018-05-09T14:04:20.742Z,22.10
2018-05-09T14:06:48.293Z,22.20
2018-05-09T14:09:16.167Z,22.20
2018-05-09T14:11:43.715Z,22.20
2018-05-09T14:14:11.263Z,22.40
2018-05-09T14:16:38.863Z,22.90
2018-05-09T14:19:06.401Z,23.30
2018-05-09T14:21:33.956Z,23.50
2018-05-09T14:24:01.508Z,23.30
2018-05-09T14:26:29.055Z,23.20
2018-05-09T14:28:57.394Z,23.30
2018-05-09T14:31:24.943Z,23.30
2018-05-09T14:33:52.493Z,23.40
2018-05-09T14:36:20.068Z,23.60
2018-05-09T14:38:47.629Z,23.50
2018-05-09T14:41:15.206Z,23.90
2018-05-09T14:43:42.745Z,24.10
2018-05-09T14:46:10.319Z,24.00
2018-05-09T14:48:37.880Z,23.70
2018-05-09T14:51:05.450Z,23.40
2018-05-09T14:53:33.006Z,23.20
2018-05-09T14:56:00.542Z,23.10
2018-05-09T14:58:28.869Z,23.00
2018-05-09T15:00:56.439Z,23.00
2018-05-09T15:03:24.005Z,23.00
2018-05-09T15:05:51.583Z,22.90
2018-05-09T15:08:19.150Z,22.80
2018-05-09T15:10:46.704Z,22.70
2018-05-09T15:13:14.260Z,22.80
2018-05-09T15:15:41.809Z,22.70
2018-05-09T15:18:09.374Z,22.50
2018-05-09T15:20:37.560Z,22.30
2018-05-09T15:23:05.138Z,22.40
2018-05-09T15:25:32.791Z,22.70
2018-05-09T15:28:00.303Z,22.70
2018-05-09T15:30:28.624Z,22.40
2018-05-09T15:32:56.240Z,22.40
2018-05-09T15:35:23.763Z,22.30
2018-05-09T15:37:51.327Z,22.30
2018-05-09T15:40:18.874Z,22.30
2018-05-09T15:42:46.463Z,22.60
2018-05-09T15:45:14.006Z,22.90
2018-05-09T15:47:41.562Z,23.20
2018-05-09T15:50:09.149Z,23.30
2018-05-09T15:52:38.337Z,23.50
2018-05-09T15:55:05.939Z,23.50
2018-05-09T15:57:33.474Z,23.50
2018-05-09T16:00:01.026Z,23.30
2018-05-09T16:02:28.567Z,23.40
2018-05-09T16:04:56.874Z,23.40
2018-05-09T16:07:24.454Z,23.40
2018-05-09T16:09:52.067Z,23.50
2018-05-09T16:12:23.198Z,23.60
2018-05-09T16:14:50.750Z,23.70
2018-05-09T16:17:18.319Z,23.70
2018-05-09T16:19:45.953Z,23.60
2018-05-09T16:22:14.300Z,23.30
2018-05-09T16:24:42.762Z,23.30
2018-05-09T16:27:10.322Z,23.20
2018-05-09T16:29:37.872Z,23.20
2018-05-09T16:32:05.433Z,23.00
2018-05-09T16:34:32.986Z,22.80
2018-05-09T16:37:00.535Z,22.80
2018-05-09T16:39:28.070Z,22.70
2018-05-09T16:41:56.399Z,22.40
2018-05-09T16:44:23.933Z,22.40
2018-05-09T16:46:51.495Z,22.30
2018-05-09T16:49:19.080Z,22.20
2018-05-09T16:51:46.621Z,22.10
2018-05-09T16:54:14.190Z,22.10
2018-05-09T16:56:41.775Z,22.10
2018-05-09T16:59:09.318Z,22.10
2018-05-09T17:01:36.911Z,22.10
2018-05-09T17:04:04.458Z,22.10
2018-05-09T17:06:32.038Z,22.00
2018-05-09T17:08:59.577Z,22.00
2018-05-09T17:11:27.145Z,21.90
2018-05-09T17:13:54.697Z,21.90
2018-05-09T17:16:23.017Z,21.70
2018-05-09T17:18:50.557Z,21.70
2018-05-09T17:21:35.015Z,21.60
2018-05-09T17:24:02.567Z,21.50
2018-05-09T17:26:30.108Z,21.40
2018-05-09T17:28:58.433Z,21.30
2018-05-09T17:31:26.352Z,21.30
2018-05-09T17:33:54.671Z,21.30
2018-05-09T17:36:22.225Z,21.20
2018-05-09T17:38:49.815Z,21.20
2018-05-09T17:41:17.373Z,21.10
2018-05-09T17:43:44.901Z,21.10
2018-05-09T17:46:13.203Z,21.00
2018-05-09T17:48:40.750Z,21.00
2018-05-09T17:51:09.074Z,20.90
2018-05-09T17:53:36.632Z,20.90
2018-05-09T17:56:04.188Z,20.90
2018-05-09T17:58:31.740Z,20.90
2018-05-09T18:00:59.328Z,20.80
2018-05-09T18:03:26.878Z,20.80
2018-05-09T18:05:54.482Z,20.70
2018-05-09T18:08:22.051Z,20.70
2018-05-09T18:10:49.602Z,20.60
2018-05-09T18:13:17.146Z,20.60
2018-05-09T18:15:44.706Z,20.50
2018-05-09T18:18:12.254Z,20.50
2018-05-09T18:20:39.780Z,20.40
2018-05-09T18:23:07.398Z,20.30
2018-05-09T18:25:34.967Z,20.20
2018-05-09T18:28:02.501Z,20.20
2018-05-09T18:30:30.797Z,20.10
2018-05-09T18:32:58.340Z,20.00
2018-05-09T18:35:26.652Z,19.90
2018-05-09T18:37:54.212Z,19.90
2018-05-09T18:40:21.807Z,19.80
2018-05-09T18:42:49.355Z,19.70
2018-05-09T18:45:16.959Z,19.60
2018-05-09T18:47:44.524Z,19.50
2018-05-09T18:50:12.068Z,19.40
2018-05-09T18:52:39.610Z,19.40
2018-05-09T18:55:07.146Z,19.30
2018-05-09T18:57:34.683Z,19.30
2018-05-09T19:00:02.365Z,19.20
2018-05-09T19:02:30.665Z,19.00
2018-05-09T19:04:58.264Z,19.00
2018-05-09T19:07:25.836Z,19.00
2018-05-09T19:09:53.402Z,19.00
2018-05-09T19:12:20.968Z,18.90
2018-05-09T19:14:48.532Z,19.00
2018-05-09T19:17:16.085Z,19.10
2018-05-09T19:19:43.734Z,19.10
2018-05-09T19:22:11.301Z,19.20
2018-05-09T19:24:38.855Z,19.20
2018-05-09T19:27:06.426Z,19.20
2018-05-09T19:29:33.967Z,19.20
2018-05-09T19:32:01.547Z,19.20
2018-05-09T19:34:29.089Z,19.20
2018-05-09T19:36:56.932Z,19.20
2018-05-09T19:39:24.496Z,19.20
2018-05-09T19:41:52.110Z,19.20
2018-05-09T19:44:20.696Z,19.30
2018-05-09T19:46:48.299Z,19.20
2018-05-09T19:49:16.070Z,19.30
2018-05-09T19:51:44.670Z,19.20
2018-05-09T19:54:12.559Z,19.20
2018-05-09T19:56:40.141Z,19.20
2018-05-09T19:59:08.018Z,19.10
2018-05-09T20:01:35.587Z,19.10
2018-05-09T20:04:03.155Z,19.00
2018-05-09T20:06:30.723Z,19.00
2018-05-09T20:08:58.257Z,19.00
2018-05-09T20:11:26.604Z,19.00
2018-05-09T20:13:54.221Z,19.00
2018-05-09T20:16:22.547Z,18.90
2018-05-09T20:18:50.881Z,18.90
2018-05-09T20:21:18.447Z,18.90
2018-05-09T20:23:46.035Z,18.80
2018-05-09T20:26:13.649Z,18.80
2018-05-09T20:28:46.870Z,18.70
2018-05-09T20:31:32.140Z,18.70
2018-05-09T20:33:59.672Z,18.60
2018-05-09T20:36:27.216Z,18.60
2018-05-09T20:38:54.760Z,18.50
2018-05-09T20:41:22.288Z,18.40
2018-05-09T20:43:49.837Z,18.40
2018-05-09T20:46:18.215Z,18.10
2018-05-09T20:48:46.554Z,18.10
2018-05-09T20:51:14.132Z,18.10
2018-05-09T20:53:41.677Z,18.20
2018-05-09T20:56:09.228Z,18.10
2018-05-09T20:58:36.813Z,18.20
2018-05-09T21:01:16.074Z,18.20
2018-05-09T21:03:43.666Z,18.20
2018-05-09T21:06:11.995Z,18.20
2018-05-09T21:08:39.579Z,18.20
2018-05-09T21:11:07.158Z,18.10
2018-05-09T21:13:34.711Z,18.10
2018-05-09T21:16:02.271Z,18.10
2018-05-09T21:18:29.834Z,18.10
2018-05-09T21:20:57.404Z,18.10
2018-05-09T21:23:24.986Z,18.10
2018-05-09T21:25:53.315Z,18.10
2018-05-09T21:28:20.857Z,18.10
2018-05-09T21:30:48.431Z,18.10
2018-05-09T21:33:16.013Z,18.10
2018-05-09T21:35:43.545Z,18.10
2018-05-09T21:38:11.094Z,18.10
2018-05-09T21:40:39.413Z,18.10
2018-05-09T21:43:06.983Z,18.10
2018-05-09T21:45:34.583Z,18.10
2018-05-09T21:48:02.146Z,18.00
2018-05-09T21:50:29.708Z,17.90
2018-05-09T21:52:57.312Z,17.90
2018-05-09T21:55:24.873Z,17.80
2018-05-09T21:57:52.419Z,17.70
2018-05-09T22:00:20.743Z,17.70
2018-05-09T22:02:48.315Z,17.60
2018-05-09T22:05:15.858Z,17.70
2018-05-09T22:07:43.410Z,17.70
2018-05-09T22:10:10.975Z,17.70
2018-05-09T22:12:38.542Z,17.70
2018-05-09T22:15:06.111Z,17.60
2018-05-09T22:17:33.693Z,17.60
2018-05-09T22:20:01.220Z,17.60
2018-05-09T22:22:29.590Z,17.60
2018-05-09T22:24:57.894Z,17.60
2018-05-09T22:27:25.609Z,17.50
2018-05-09T22:29:53.545Z,17.50
2018-05-09T22:32:21.285Z,17.50
2018-05-09T22:34:49.589Z,17.40
2018-05-09T22:37:17.206Z,17.30
2018-05-09T22:39:44.746Z,17.20
2018-05-09T22:42:12.431Z,17.10
2018-05-09T22:44:39.998Z,17.00
2018-05-09T22:47:07.530Z,16.90
2018-05-09T22:49:35.071Z,16.80
2018-05-09T22:52:02.630Z,16.80
2018-05-09T22:54:30.954Z,16.90
2018-05-09T22:56:58.501Z,16.80
2018-05-09T22:59:26.063Z,16.90
2018-05-09T23:01:53.623Z,16.90
2018-05-09T23:04:21.163Z,17.00
2018-05-09T23:06:49.467Z,16.90
2018-05-09T23:09:17.003Z,16.90
2018-05-09T23:11:45.326Z,16.80
2018-05-09T23:14:12.857Z,16.80
2018-05-09T23:16:41.182Z,16.70
2018-05-09T23:19:08.714Z,16.70
2018-05-09T23:21:36.245Z,16.70
2018-05-09T23:24:03.835Z,16.50
2018-05-09T23:26:31.374Z,16.50
2018-05-09T23:28:58.938Z,16.50
2018-05-09T23:31:26.522Z,16.40
2018-05-09T23:33:54.813Z,16.30
2018-05-09T23:36:22.337Z,16.30
2018-05-09T23:38:49.951Z,16.20
2018-05-09T23:41:17.523Z,16.10
2018-05-09T23:43:45.077Z,16.10
2018-05-09T23:46:12.623Z,16.10
2018-05-09T23:48:40.987Z,16.10
2018-05-09T23:51:08.538Z,16.10
2018-05-09T23:53:36.113Z,16.10
2018-05-09T23:56:03.661Z,16.20
2018-05-09T23:58:31.212Z,16.20
